sensor_id;sensor_type;location;lat;lon;timestamp;P1;durP1;ratioP1;P2;durP2;ratioP2
50821;SDS011;36794;51.212;6.980;2022-12-08T00:02:17;38.17;;;24.50;;
50821;SDS011;36794;51.212;6.980;2022-12-08T00:04:43;42.70;;;23.40;;
50821;SDS011;36794;51.212;6.980;2022-12-08T00:07:28;30.73;;;18.60;;
50821;SDS011;36794;51.212;6.980;2022-12-08T00:10:12;35.35;;;22.65;;
50821;SDS011;36794;51.212;6.980;2022-12-08T00:12:38;37.77;;;23.43;;
50821;SDS011;36794;51.212;6.980;2022-12-08T00:15:04;42.47;;;24.80;;
50821;SDS011;36794;51.212;6.980;2022-12-08T00:17:30;37.77;;;24.63;;
50821;SDS011;36794;51.212;6.980;2022-12-08T00:19:56;42.53;;;24.53;;
50821;SDS011;36794;51.212;6.980;2022-12-08T00:22:22;43.07;;;24.40;;
50821;SDS011;36794;51.212;6.980;2022-12-08T00:24:48;42.30;;;24.43;;
50821;SDS011;36794;51.212;6.980;2022-12-08T00:27:15;38.83;;;24.37;;
50821;SDS011;36794;51.212;6.980;2022-12-08T00:29:42;38.30;;;24.70;;
50821;SDS011;36794;51.212;6.980;2022-12-08T00:32:08;43.53;;;24.47;;
50821;SDS011;36794;51.212;6.980;2022-12-08T00:34:34;40.30;;;23.90;;
50821;SDS011;36794;51.212;6.980;2022-12-08T00:37:00;35.93;;;22.53;;
50821;SDS011;36794;51.212;6.980;2022-12-08T00:39:26;35.93;;;23.57;;
50821;SDS011;36794;51.212;6.980;2022-12-08T00:41:52;40.57;;;22.53;;
50821;SDS011;36794;51.212;6.980;2022-12-08T00:44:36;36.67;;;21.80;;
50821;SDS011;36794;51.212;6.980;2022-12-08T00:47:02;36.83;;;20.57;;
50821;SDS011;36794;51.212;6.980;2022-12-08T00:49:28;35.57;;;21.83;;
50821;SDS011;36794;51.212;6.980;2022-12-08T00:51:54;33.27;;;21.07;;
50821;SDS011;36794;51.212;6.980;2022-12-08T00:54:20;35.40;;;21.30;;
50821;SDS011;36794;51.212;6.980;2022-12-08T00:56:50;34.30;;;21.80;;
50821;SDS011;36794;51.212;6.980;2022-12-08T00:59:16;32.10;;;21.33;;
50821;SDS011;36794;51.212;6.980;2022-12-08T01:01:43;29.50;;;19.43;;
50821;SDS011;36794;51.212;6.980;2022-12-08T01:04:09;36.90;;;20.30;;
50821;SDS011;36794;51.212;6.980;2022-12-08T01:06:37;33.27;;;20.40;;
50821;SDS011;36794;51.212;6.980;2022-12-08T01:09:03;33.77;;;19.60;;
50821;SDS011;36794;51.212;6.980;2022-12-08T01:11:30;27.13;;;18.37;;
50821;SDS011;36794;51.212;6.980;2022-12-08T01:13:56;30.37;;;19.30;;
50821;SDS011;36794;51.212;6.980;2022-12-08T01:16:23;25.63;;;18.23;;
50821;SDS011;36794;51.212;6.980;2022-12-08T01:18:49;29.43;;;19.57;;
50821;SDS011;36794;51.212;6.980;2022-12-08T01:21:15;29.93;;;18.03;;
50821;SDS011;36794;51.212;6.980;2022-12-08T01:23:41;27.80;;;18.23;;
50821;SDS011;36794;51.212;6.980;2022-12-08T01:26:07;28.70;;;17.63;;
50821;SDS011;36794;51.212;6.980;2022-12-08T01:28:34;31.83;;;18.97;;
50821;SDS011;36794;51.212;6.980;2022-12-08T01:31:00;31.17;;;18.40;;
50821;SDS011;36794;51.212;6.980;2022-12-08T01:33:26;29.77;;;18.87;;
50821;SDS011;36794;51.212;6.980;2022-12-08T01:35:52;29.93;;;18.30;;
50821;SDS011;36794;51.212;6.980;2022-12-08T01:38:19;34.00;;;18.23;;
50821;SDS011;36794;51.212;6.980;2022-12-08T01:40:45;34.33;;;19.70;;
50821;SDS011;36794;51.212;6.980;2022-12-08T01:43:15;33.43;;;19.23;;
50821;SDS011;36794;51.212;6.980;2022-12-08T01:45:41;34.70;;;20.13;;
50821;SDS011;36794;51.212;6.980;2022-12-08T01:48:09;33.43;;;20.33;;
50821;SDS011;36794;51.212;6.980;2022-12-08T01:50:37;37.83;;;20.70;;
50821;SDS011;36794;51.212;6.980;2022-12-08T01:53:07;37.20;;;22.27;;
50821;SDS011;36794;51.212;6.980;2022-12-08T01:55:36;32.47;;;20.83;;
50821;SDS011;36794;51.212;6.980;2022-12-08T01:58:14;35.67;;;22.47;;
50821;SDS011;36794;51.212;6.980;2022-12-08T02:00:41;38.53;;;23.03;;
50821;SDS011;36794;51.212;6.980;2022-12-08T02:03:08;35.77;;;21.63;;
50821;SDS011;36794;51.212;6.980;2022-12-08T02:08:33;38.63;;;24.07;;
50821;SDS011;36794;51.212;6.980;2022-12-08T02:11:22;43.70;;;24.20;;
50821;SDS011;36794;51.212;6.980;2022-12-08T03:39:30;35.23;;;20.87;;
50821;SDS011;36794;51.212;6.980;2022-12-08T03:41:56;35.40;;;20.90;;
50821;SDS011;36794;51.212;6.980;2022-12-08T03:44:22;37.23;;;22.13;;
50821;SDS011;36794;51.212;6.980;2022-12-08T03:46:48;36.20;;;21.43;;
50821;SDS011;36794;51.212;6.980;2022-12-08T03:51:56;26.73;;;18.03;;
50821;SDS011;36794;51.212;6.980;2022-12-08T03:54:22;26.77;;;17.87;;
50821;SDS011;36794;51.212;6.980;2022-12-08T03:56:48;27.30;;;16.93;;
50821;SDS011;36794;51.212;6.980;2022-12-08T03:59:14;24.00;;;16.30;;
50821;SDS011;36794;51.212;6.980;2022-12-08T04:01:40;24.67;;;15.83;;
50821;SDS011;36794;51.212;6.980;2022-12-08T04:04:06;24.77;;;15.77;;
50821;SDS011;36794;51.212;6.980;2022-12-08T04:06:32;22.47;;;15.27;;
50821;SDS011;36794;51.212;6.980;2022-12-08T04:08:59;23.60;;;15.67;;
50821;SDS011;36794;51.212;6.980;2022-12-08T04:11:25;22.47;;;15.10;;
50821;SDS011;36794;51.212;6.980;2022-12-08T04:13:51;22.80;;;14.67;;
50821;SDS011;36794;51.212;6.980;2022-12-08T04:16:18;21.33;;;13.93;;
50821;SDS011;36794;51.212;6.980;2022-12-08T04:18:45;23.20;;;14.23;;
50821;SDS011;36794;51.212;6.980;2022-12-08T04:21:11;20.03;;;13.93;;
50821;SDS011;36794;51.212;6.980;2022-12-08T04:23:37;21.80;;;13.50;;
50821;SDS011;36794;51.212;6.980;2022-12-08T04:26:03;19.00;;;13.07;;
50821;SDS011;36794;51.212;6.980;2022-12-08T04:28:29;19.17;;;13.10;;
50821;SDS011;36794;51.212;6.980;2022-12-08T04:30:55;17.23;;;11.70;;
50821;SDS011;36794;51.212;6.980;2022-12-08T04:33:24;18.97;;;12.73;;
50821;SDS011;36794;51.212;6.980;2022-12-08T04:35:50;18.03;;;12.13;;
50821;SDS011;36794;51.212;6.980;2022-12-08T04:38:18;20.07;;;12.87;;
50821;SDS011;36794;51.212;6.980;2022-12-08T04:40:44;19.10;;;12.70;;
50821;SDS011;36794;51.212;6.980;2022-12-08T04:43:10;22.30;;;14.57;;
50821;SDS011;36794;51.212;6.980;2022-12-08T04:45:41;22.07;;;14.27;;
50821;SDS011;36794;51.212;6.980;2022-12-08T04:48:07;22.37;;;15.50;;
50821;SDS011;36794;51.212;6.980;2022-12-08T04:50:33;19.77;;;14.23;;
50821;SDS011;36794;51.212;6.980;2022-12-08T04:52:59;21.93;;;14.23;;
50821;SDS011;36794;51.212;6.980;2022-12-08T04:55:25;22.30;;;14.33;;
50821;SDS011;36794;51.212;6.980;2022-12-08T04:57:57;23.47;;;13.83;;
50821;SDS011;36794;51.212;6.980;2022-12-08T05:00:42;21.00;;;13.73;;
50821;SDS011;36794;51.212;6.980;2022-12-08T05:03:08;22.10;;;14.53;;
50821;SDS011;36794;51.212;6.980;2022-12-08T05:05:34;20.67;;;13.77;;
50821;SDS011;36794;51.212;6.980;2022-12-08T05:08:00;21.37;;;14.20;;
50821;SDS011;36794;51.212;6.980;2022-12-08T05:10:26;23.60;;;14.70;;
50821;SDS011;36794;51.212;6.980;2022-12-08T05:12:52;23.33;;;14.00;;
50821;SDS011;36794;51.212;6.980;2022-12-08T05:15:18;24.23;;;14.43;;
50821;SDS011;36794;51.212;6.980;2022-12-08T05:17:44;20.17;;;13.60;;
50821;SDS011;36794;51.212;6.980;2022-12-08T05:20:10;18.33;;;13.60;;
50821;SDS011;36794;51.212;6.980;2022-12-08T05:22:36;22.33;;;14.53;;
50821;SDS011;36794;51.212;6.980;2022-12-08T05:25:02;21.70;;;14.47;;
50821;SDS011;36794;51.212;6.980;2022-12-08T05:27:28;25.03;;;14.33;;
50821;SDS011;36794;51.212;6.980;2022-12-08T05:29:54;23.00;;;14.70;;
50821;SDS011;36794;51.212;6.980;2022-12-08T05:32:20;30.40;;;16.80;;
50821;SDS011;36794;51.212;6.980;2022-12-08T05:34:46;22.23;;;14.87;;
50821;SDS011;36794;51.212;6.980;2022-12-08T05:37:12;27.33;;;15.93;;
50821;SDS011;36794;51.212;6.980;2022-12-08T05:39:38;24.93;;;17.00;;
50821;SDS011;36794;51.212;6.980;2022-12-08T05:42:04;27.57;;;17.17;;
50821;SDS011;36794;51.212;6.980;2022-12-08T05:44:30;29.40;;;18.60;;
50821;SDS011;36794;51.212;6.980;2022-12-08T05:46:56;30.30;;;19.23;;
50821;SDS011;36794;51.212;6.980;2022-12-08T05:49:22;29.23;;;18.13;;
50821;SDS011;36794;51.212;6.980;2022-12-08T05:51:48;33.87;;;19.40;;
50821;SDS011;36794;51.212;6.980;2022-12-08T05:54:14;36.80;;;19.90;;
50821;SDS011;36794;51.212;6.980;2022-12-08T05:56:40;33.87;;;20.50;;
50821;SDS011;36794;51.212;6.980;2022-12-08T05:59:06;37.17;;;21.40;;
50821;SDS011;36794;51.212;6.980;2022-12-08T06:01:32;39.60;;;21.43;;
50821;SDS011;36794;51.212;6.980;2022-12-08T06:03:59;39.77;;;21.00;;
50821;SDS011;36794;51.212;6.980;2022-12-08T06:06:25;39.77;;;22.30;;
50821;SDS011;36794;51.212;6.980;2022-12-08T06:08:51;42.87;;;23.00;;
50821;SDS011;36794;51.212;6.980;2022-12-08T06:11:22;43.93;;;22.93;;
50821;SDS011;36794;51.212;6.980;2022-12-08T06:13:48;41.97;;;23.57;;
50821;SDS011;36794;51.212;6.980;2022-12-08T06:16:14;48.03;;;25.53;;
50821;SDS011;36794;51.212;6.980;2022-12-08T06:18:40;45.30;;;24.70;;
50821;SDS011;36794;51.212;6.980;2022-12-08T06:21:07;45.73;;;24.77;;
50821;SDS011;36794;51.212;6.980;2022-12-08T06:23:33;50.03;;;26.63;;
50821;SDS011;36794;51.212;6.980;2022-12-08T06:26:10;45.63;;;26.73;;
50821;SDS011;36794;51.212;6.980;2022-12-08T06:28:37;49.13;;;27.10;;
50821;SDS011;36794;51.212;6.980;2022-12-08T06:31:07;55.07;;;27.30;;
50821;SDS011;36794;51.212;6.980;2022-12-08T06:33:33;53.03;;;26.90;;
50821;SDS011;36794;51.212;6.980;2022-12-08T06:35:59;47.33;;;27.70;;
50821;SDS011;36794;51.212;6.980;2022-12-08T06:38:25;45.63;;;26.97;;
50821;SDS011;36794;51.212;6.980;2022-12-08T06:40:55;51.67;;;27.33;;
50821;SDS011;36794;51.212;6.980;2022-12-08T06:43:21;51.37;;;25.80;;
50821;SDS011;36794;51.212;6.980;2022-12-08T06:45:47;46.70;;;26.27;;
50821;SDS011;36794;51.212;6.980;2022-12-08T06:48:14;52.13;;;26.07;;
50821;SDS011;36794;51.212;6.980;2022-12-08T06:50:40;49.20;;;26.80;;
50821;SDS011;36794;51.212;6.980;2022-12-08T06:53:05;42.83;;;24.43;;
50821;SDS011;36794;51.212;6.980;2022-12-08T06:55:32;44.17;;;23.87;;
50821;SDS011;36794;51.212;6.980;2022-12-08T06:57:58;41.90;;;23.00;;
50821;SDS011;36794;51.212;6.980;2022-12-08T07:00:24;42.53;;;24.03;;
50821;SDS011;36794;51.212;6.980;2022-12-08T07:02:50;43.50;;;23.73;;
50821;SDS011;36794;51.212;6.980;2022-12-08T07:05:15;42.80;;;22.83;;
50821;SDS011;36794;51.212;6.980;2022-12-08T07:07:41;41.47;;;22.60;;
50821;SDS011;36794;51.212;6.980;2022-12-08T07:10:07;42.53;;;21.97;;
50821;SDS011;36794;51.212;6.980;2022-12-08T07:12:33;43.30;;;22.57;;
50821;SDS011;36794;51.212;6.980;2022-12-08T07:14:59;37.60;;;21.63;;
50821;SDS011;36794;51.212;6.980;2022-12-08T07:17:25;40.90;;;23.47;;
50821;SDS011;36794;51.212;6.980;2022-12-08T07:19:51;37.23;;;22.37;;
50821;SDS011;36794;51.212;6.980;2022-12-08T07:22:17;40.17;;;22.47;;
50821;SDS011;36794;51.212;6.980;2022-12-08T07:24:43;39.83;;;23.03;;
50821;SDS011;36794;51.212;6.980;2022-12-08T07:27:09;45.33;;;23.43;;
50821;SDS011;36794;51.212;6.980;2022-12-08T07:29:35;41.73;;;22.23;;
50821;SDS011;36794;51.212;6.980;2022-12-08T07:32:01;42.37;;;23.47;;
50821;SDS011;36794;51.212;6.980;2022-12-08T07:34:27;39.57;;;23.30;;
50821;SDS011;36794;51.212;6.980;2022-12-08T07:36:52;41.43;;;24.60;;
50821;SDS011;36794;51.212;6.980;2022-12-08T07:39:18;39.37;;;24.53;;
50821;SDS011;36794;51.212;6.980;2022-12-08T07:41:44;41.77;;;22.83;;
50821;SDS011;36794;51.212;6.980;2022-12-08T07:44:10;43.87;;;23.23;;
50821;SDS011;36794;51.212;6.980;2022-12-08T07:46:36;38.40;;;23.43;;
50821;SDS011;36794;51.212;6.980;2022-12-08T07:49:02;38.30;;;23.17;;
50821;SDS011;36794;51.212;6.980;2022-12-08T07:51:28;40.33;;;22.87;;
50821;SDS011;36794;51.212;6.980;2022-12-08T07:53:54;36.93;;;21.83;;
50821;SDS011;36794;51.212;6.980;2022-12-08T07:56:20;37.40;;;23.00;;
50821;SDS011;36794;51.212;6.980;2022-12-08T07:58:46;36.43;;;21.87;;
50821;SDS011;36794;51.212;6.980;2022-12-08T08:01:25;34.83;;;21.10;;
50821;SDS011;36794;51.212;6.980;2022-12-08T08:03:53;45.33;;;22.63;;
50821;SDS011;36794;51.212;6.980;2022-12-08T08:06:19;37.13;;;22.23;;
50821;SDS011;36794;51.212;6.980;2022-12-08T08:08:45;41.17;;;22.83;;
50821;SDS011;36794;51.212;6.980;2022-12-08T08:11:11;34.50;;;21.20;;
50821;SDS011;36794;51.212;6.980;2022-12-08T08:13:37;38.90;;;22.03;;
50821;SDS011;36794;51.212;6.980;2022-12-08T08:16:04;34.87;;;19.20;;
50821;SDS011;36794;51.212;6.980;2022-12-08T08:18:30;30.07;;;18.77;;
50821;SDS011;36794;51.212;6.980;2022-12-08T08:20:56;31.97;;;18.47;;
50821;SDS011;36794;51.212;6.980;2022-12-08T08:23:21;34.47;;;19.40;;
50821;SDS011;36794;51.212;6.980;2022-12-08T08:25:47;30.83;;;19.03;;
50821;SDS011;36794;51.212;6.980;2022-12-08T08:28:13;39.87;;;21.00;;
50821;SDS011;36794;51.212;6.980;2022-12-08T08:30:40;36.20;;;19.90;;
50821;SDS011;36794;51.212;6.980;2022-12-08T08:33:06;32.93;;;20.53;;
50821;SDS011;36794;51.212;6.980;2022-12-08T08:35:32;37.43;;;20.17;;
50821;SDS011;36794;51.212;6.980;2022-12-08T08:37:59;31.90;;;18.17;;
50821;SDS011;36794;51.212;6.980;2022-12-08T08:40:25;35.30;;;18.77;;
50821;SDS011;36794;51.212;6.980;2022-12-08T08:42:51;32.20;;;18.50;;
50821;SDS011;36794;51.212;6.980;2022-12-08T08:45:17;30.37;;;18.07;;
50821;SDS011;36794;51.212;6.980;2022-12-08T08:47:43;33.13;;;17.83;;
50821;SDS011;36794;51.212;6.980;2022-12-08T08:50:09;36.70;;;18.77;;
50821;SDS011;36794;51.212;6.980;2022-12-08T08:52:35;38.20;;;19.67;;
50821;SDS011;36794;51.212;6.980;2022-12-08T08:55:01;37.90;;;21.73;;
50821;SDS011;36794;51.212;6.980;2022-12-08T08:57:27;39.17;;;21.10;;
50821;SDS011;36794;51.212;6.980;2022-12-08T08:59:53;36.97;;;21.40;;
50821;SDS011;36794;51.212;6.980;2022-12-08T09:02:19;40.43;;;22.80;;
50821;SDS011;36794;51.212;6.980;2022-12-08T09:04:45;37.40;;;22.40;;
50821;SDS011;36794;51.212;6.980;2022-12-08T09:07:12;39.53;;;22.53;;
50821;SDS011;36794;51.212;6.980;2022-12-08T09:09:38;36.77;;;21.87;;
50821;SDS011;36794;51.212;6.980;2022-12-08T09:12:04;44.13;;;22.97;;
50821;SDS011;36794;51.212;6.980;2022-12-08T09:14:30;44.63;;;22.77;;
50821;SDS011;36794;51.212;6.980;2022-12-08T09:16:56;43.20;;;22.73;;
50821;SDS011;36794;51.212;6.980;2022-12-08T09:19:22;48.20;;;24.17;;
50821;SDS011;36794;51.212;6.980;2022-12-08T09:21:48;48.30;;;26.37;;
50821;SDS011;36794;51.212;6.980;2022-12-08T09:24:16;48.37;;;25.03;;
50821;SDS011;36794;51.212;6.980;2022-12-08T09:26:43;47.93;;;24.33;;
50821;SDS011;36794;51.212;6.980;2022-12-08T09:29:09;59.03;;;26.43;;
50821;SDS011;36794;51.212;6.980;2022-12-08T09:31:36;50.77;;;25.40;;
50821;SDS011;36794;51.212;6.980;2022-12-08T09:34:02;43.67;;;23.63;;
50821;SDS011;36794;51.212;6.980;2022-12-08T09:36:29;45.83;;;24.20;;
50821;SDS011;36794;51.212;6.980;2022-12-08T09:38:55;50.10;;;25.47;;
50821;SDS011;36794;51.212;6.980;2022-12-08T09:43:51;53.27;;;25.00;;
50821;SDS011;36794;51.212;6.980;2022-12-08T09:46:20;42.43;;;22.60;;
50821;SDS011;36794;51.212;6.980;2022-12-08T09:48:49;44.83;;;23.77;;
50821;SDS011;36794;51.212;6.980;2022-12-08T09:51:19;52.27;;;24.13;;
50821;SDS011;36794;51.212;6.980;2022-12-08T09:53:57;45.13;;;23.47;;
50821;SDS011;36794;51.212;6.980;2022-12-08T09:56:25;44.87;;;22.63;;
50821;SDS011;36794;51.212;6.980;2022-12-08T10:01:27;47.83;;;22.43;;
50821;SDS011;36794;51.212;6.980;2022-12-08T10:03:54;40.60;;;20.93;;
50821;SDS011;36794;51.212;6.980;2022-12-08T10:06:21;40.27;;;22.00;;
50821;SDS011;36794;51.212;6.980;2022-12-08T10:11:44;41.57;;;21.80;;
50821;SDS011;36794;51.212;6.980;2022-12-08T10:14:32;38.20;;;20.77;;
50821;SDS011;36794;51.212;6.980;2022-12-08T10:17:02;35.13;;;18.85;;
50821;SDS011;36794;51.212;6.980;2022-12-08T10:19:38;43.03;;;19.53;;
50821;SDS011;36794;51.212;6.980;2022-12-08T10:22:11;42.50;;;20.20;;
50821;SDS011;36794;51.212;6.980;2022-12-08T10:24:49;36.50;;;17.90;;
50821;SDS011;36794;51.212;6.980;2022-12-08T10:27:15;35.43;;;18.77;;
50821;SDS011;36794;51.212;6.980;2022-12-08T10:29:41;30.37;;;17.33;;
50821;SDS011;36794;51.212;6.980;2022-12-08T10:32:08;39.37;;;19.83;;
50821;SDS011;36794;51.212;6.980;2022-12-08T10:34:37;32.87;;;18.63;;
50821;SDS011;36794;51.212;6.980;2022-12-08T10:37:22;31.47;;;17.97;;
50821;SDS011;36794;51.212;6.980;2022-12-08T10:39:48;35.53;;;17.00;;
50821;SDS011;36794;51.212;6.980;2022-12-08T10:42:23;29.02;;;16.60;;
50821;SDS011;36794;51.212;6.980;2022-12-08T10:45:02;33.87;;;16.70;;
50821;SDS011;36794;51.212;6.980;2022-12-08T10:47:28;31.50;;;15.47;;
50821;SDS011;36794;51.212;6.980;2022-12-08T10:52:39;34.83;;;16.83;;
50821;SDS011;36794;51.212;6.980;2022-12-08T10:55:13;30.00;;;16.67;;
50821;SDS011;36794;51.212;6.980;2022-12-08T10:57:39;36.53;;;16.77;;
50821;SDS011;36794;51.212;6.980;2022-12-08T11:00:05;32.67;;;16.70;;
50821;SDS011;36794;51.212;6.980;2022-12-08T11:02:31;36.63;;;16.53;;
50821;SDS011;36794;51.212;6.980;2022-12-08T11:04:58;33.83;;;16.77;;
50821;SDS011;36794;51.212;6.980;2022-12-08T11:07:24;29.47;;;16.10;;
50821;SDS011;36794;51.212;6.980;2022-12-08T11:09:54;31.17;;;16.30;;
50821;SDS011;36794;51.212;6.980;2022-12-08T11:12:22;30.93;;;15.73;;
50821;SDS011;36794;51.212;6.980;2022-12-08T11:15:00;30.97;;;15.17;;
50821;SDS011;36794;51.212;6.980;2022-12-08T11:17:28;32.27;;;15.57;;
50821;SDS011;36794;51.212;6.980;2022-12-08T11:19:55;33.37;;;15.57;;
50821;SDS011;36794;51.212;6.980;2022-12-08T11:22:23;31.27;;;16.00;;
50821;SDS011;36794;51.212;6.980;2022-12-08T11:27:24;33.77;;;16.47;;
50821;SDS011;36794;51.212;6.980;2022-12-08T11:29:50;29.20;;;16.57;;
50821;SDS011;36794;51.212;6.980;2022-12-08T11:32:17;29.73;;;16.50;;
50821;SDS011;36794;51.212;6.980;2022-12-08T11:34:48;38.70;;;17.23;;
50821;SDS011;36794;51.212;6.980;2022-12-08T11:37:28;36.47;;;16.53;;
50821;SDS011;36794;51.212;6.980;2022-12-08T11:39:56;32.77;;;16.53;;
50821;SDS011;36794;51.212;6.980;2022-12-08T11:42:23;35.13;;;16.43;;
50821;SDS011;36794;51.212;6.980;2022-12-08T11:44:56;31.83;;;17.07;;
50821;SDS011;36794;51.212;6.980;2022-12-08T11:47:42;29.03;;;15.57;;
50821;SDS011;36794;51.212;6.980;2022-12-08T11:52:46;27.07;;;16.37;;
50821;SDS011;36794;51.212;6.980;2022-12-08T11:57:57;31.17;;;14.77;;
50821;SDS011;36794;51.212;6.980;2022-12-08T12:00:27;30.73;;;15.57;;
50821;SDS011;36794;51.212;6.980;2022-12-08T12:02:55;32.73;;;14.50;;
50821;SDS011;36794;51.212;6.980;2022-12-08T12:20:56;24.63;;;13.17;;
50821;SDS011;36794;51.212;6.980;2022-12-08T12:23:43;33.50;;;14.67;;
50821;SDS011;36794;51.212;6.980;2022-12-08T12:26:21;22.87;;;14.13;;
50821;SDS011;36794;51.212;6.980;2022-12-08T12:28:49;29.57;;;14.23;;
50821;SDS011;36794;51.212;6.980;2022-12-08T12:31:18;27.87;;;14.57;;
50821;SDS011;36794;51.212;6.980;2022-12-08T12:33:46;24.37;;;13.33;;
50821;SDS011;36794;51.212;6.980;2022-12-08T12:36:13;24.93;;;13.53;;
50821;SDS011;36794;51.212;6.980;2022-12-08T12:38:43;24.00;;;12.57;;
50821;SDS011;36794;51.212;6.980;2022-12-08T12:41:28;30.90;;;11.70;;
50821;SDS011;36794;51.212;6.980;2022-12-08T12:52:02;24.92;;;12.88;;
50821;SDS011;36794;51.212;6.980;2022-12-08T12:54:29;27.27;;;13.50;;
50821;SDS011;36794;51.212;6.980;2022-12-08T12:59:33;25.50;;;13.27;;
50821;SDS011;36794;51.212;6.980;2022-12-08T13:01:59;25.33;;;13.60;;
50821;SDS011;36794;51.212;6.980;2022-12-08T13:04:32;29.03;;;13.60;;
50821;SDS011;36794;51.212;6.980;2022-12-08T13:06:59;26.90;;;13.43;;
50821;SDS011;36794;51.212;6.980;2022-12-08T13:09:26;26.50;;;14.30;;
50821;SDS011;36794;51.212;6.980;2022-12-08T13:11:54;27.67;;;13.57;;
50821;SDS011;36794;51.212;6.980;2022-12-08T13:14:32;27.33;;;13.43;;
50821;SDS011;36794;51.212;6.980;2022-12-08T13:16:59;30.13;;;13.33;;
50821;SDS011;36794;51.212;6.980;2022-12-08T13:19:27;27.43;;;13.57;;
50821;SDS011;36794;51.212;6.980;2022-12-08T13:21:54;32.53;;;13.97;;
50821;SDS011;36794;51.212;6.980;2022-12-08T13:27:33;24.23;;;13.60;;
50821;SDS011;36794;51.212;6.980;2022-12-08T13:29:38;31.57;;;14.13;;
50821;SDS011;36794;51.212;6.980;2022-12-08T13:34:37;30.03;;;14.17;;
50821;SDS011;36794;51.212;6.980;2022-12-08T13:44:56;25.37;;;13.43;;
50821;SDS011;36794;51.212;6.980;2022-12-08T13:47:29;30.90;;;13.33;;
50821;SDS011;36794;51.212;6.980;2022-12-08T13:50:00;26.70;;;13.97;;
50821;SDS011;36794;51.212;6.980;2022-12-08T13:52:35;27.77;;;13.37;;
50821;SDS011;36794;51.212;6.980;2022-12-08T13:55:02;28.75;;;13.65;;
50821;SDS011;36794;51.212;6.980;2022-12-08T13:57:35;21.93;;;13.00;;
50821;SDS011;36794;51.212;6.980;2022-12-08T14:00:03;30.50;;;14.87;;
50821;SDS011;36794;51.212;6.980;2022-12-08T14:02:36;27.87;;;14.23;;
50821;SDS011;36794;51.212;6.980;2022-12-08T14:05:03;25.70;;;13.03;;
50821;SDS011;36794;51.212;6.980;2022-12-08T14:07:30;22.77;;;13.50;;
50821;SDS011;36794;51.212;6.980;2022-12-08T14:09:56;28.13;;;13.87;;
50821;SDS011;36794;51.212;6.980;2022-12-08T14:12:24;26.30;;;13.73;;
50821;SDS011;36794;51.212;6.980;2022-12-08T14:14:52;25.47;;;13.00;;
50821;SDS011;36794;51.212;6.980;2022-12-08T14:17:19;31.03;;;14.33;;
50821;SDS011;36794;51.212;6.980;2022-12-08T14:19:59;29.93;;;14.50;;
50821;SDS011;36794;51.212;6.980;2022-12-08T14:22:32;25.53;;;14.07;;
50821;SDS011;36794;51.212;6.980;2022-12-08T14:24:59;26.97;;;13.07;;
50821;SDS011;36794;51.212;6.980;2022-12-08T14:27:26;22.37;;;13.33;;
50821;SDS011;36794;51.212;6.980;2022-12-08T14:29:54;24.83;;;13.00;;
50821;SDS011;36794;51.212;6.980;2022-12-08T14:32:34;23.70;;;12.93;;
50821;SDS011;36794;51.212;6.980;2022-12-08T14:37:32;25.03;;;12.70;;
50821;SDS011;36794;51.212;6.980;2022-12-08T14:40:00;25.17;;;13.00;;
50821;SDS011;36794;51.212;6.980;2022-12-08T14:42:26;29.27;;;12.73;;
50821;SDS011;36794;51.212;6.980;2022-12-08T14:44:57;26.53;;;13.27;;
50821;SDS011;36794;51.212;6.980;2022-12-08T14:47:27;28.00;;;12.03;;
50821;SDS011;36794;51.212;6.980;2022-12-08T14:49:53;26.13;;;12.00;;
50821;SDS011;36794;51.212;6.980;2022-12-08T14:52:19;22.10;;;12.70;;
50821;SDS011;36794;51.212;6.980;2022-12-08T14:54:45;23.87;;;11.77;;
50821;SDS011;36794;51.212;6.980;2022-12-08T14:57:17;19.83;;;11.77;;
50821;SDS011;36794;51.212;6.980;2022-12-08T14:59:43;23.47;;;12.80;;
50821;SDS011;36794;51.212;6.980;2022-12-08T15:04:46;19.20;;;12.07;;
50821;SDS011;36794;51.212;6.980;2022-12-08T15:07:16;28.20;;;12.57;;
50821;SDS011;36794;51.212;6.980;2022-12-08T15:09:44;26.40;;;12.30;;
50821;SDS011;36794;51.212;6.980;2022-12-08T15:14:38;26.83;;;12.13;;
50821;SDS011;36794;51.212;6.980;2022-12-08T15:17:27;25.77;;;12.30;;
50821;SDS011;36794;51.212;6.980;2022-12-08T15:19:54;22.80;;;12.37;;
50821;SDS011;36794;51.212;6.980;2022-12-08T15:22:20;27.47;;;12.17;;
50821;SDS011;36794;51.212;6.980;2022-12-08T15:24:47;24.07;;;12.57;;
50821;SDS011;36794;51.212;6.980;2022-12-08T15:27:15;23.77;;;12.33;;
50821;SDS011;36794;51.212;6.980;2022-12-08T15:29:42;22.07;;;12.17;;
50821;SDS011;36794;51.212;6.980;2022-12-08T15:32:08;25.10;;;11.80;;
50821;SDS011;36794;51.212;6.980;2022-12-08T15:34:35;30.80;;;12.70;;
50821;SDS011;36794;51.212;6.980;2022-12-08T15:37:01;25.07;;;13.10;;
50821;SDS011;36794;51.212;6.980;2022-12-08T15:39:31;25.37;;;12.37;;
50821;SDS011;36794;51.212;6.980;2022-12-08T15:41:58;24.00;;;12.23;;
50821;SDS011;36794;51.212;6.980;2022-12-08T15:44:24;20.47;;;12.13;;
50821;SDS011;36794;51.212;6.980;2022-12-08T15:46:51;23.93;;;12.13;;
50821;SDS011;36794;51.212;6.980;2022-12-08T15:49:21;21.93;;;12.03;;
50821;SDS011;36794;51.212;6.980;2022-12-08T15:51:47;22.13;;;12.73;;
50821;SDS011;36794;51.212;6.980;2022-12-08T15:54:13;23.57;;;12.10;;
50821;SDS011;36794;51.212;6.980;2022-12-08T15:56:49;22.40;;;12.33;;
50821;SDS011;36794;51.212;6.980;2022-12-08T15:59:16;28.93;;;13.63;;
50821;SDS011;36794;51.212;6.980;2022-12-08T16:01:43;23.80;;;12.33;;
50821;SDS011;36794;51.212;6.980;2022-12-08T16:04:11;23.80;;;12.13;;
50821;SDS011;36794;51.212;6.980;2022-12-08T16:06:38;28.37;;;12.40;;
50821;SDS011;36794;51.212;6.980;2022-12-08T16:09:04;22.03;;;11.80;;
50821;SDS011;36794;51.212;6.980;2022-12-08T16:11:30;26.03;;;13.80;;
50821;SDS011;36794;51.212;6.980;2022-12-08T16:14:15;18.48;;;11.98;;
50821;SDS011;36794;51.212;6.980;2022-12-08T16:16:41;20.03;;;11.50;;
50821;SDS011;36794;51.212;6.980;2022-12-08T16:19:09;22.80;;;11.47;;
50821;SDS011;36794;51.212;6.980;2022-12-08T16:21:37;22.97;;;11.83;;
50821;SDS011;36794;51.212;6.980;2022-12-08T16:24:04;26.60;;;12.00;;
50821;SDS011;36794;51.212;6.980;2022-12-08T16:26:30;26.63;;;11.70;;
50821;SDS011;36794;51.212;6.980;2022-12-08T16:28:56;19.63;;;11.33;;
50821;SDS011;36794;51.212;6.980;2022-12-08T16:31:21;23.53;;;10.93;;
50821;SDS011;36794;51.212;6.980;2022-12-08T16:33:47;23.70;;;11.47;;
50821;SDS011;36794;51.212;6.980;2022-12-08T16:36:13;21.77;;;10.50;;
50821;SDS011;36794;51.212;6.980;2022-12-08T16:38:39;22.90;;;10.70;;
50821;SDS011;36794;51.212;6.980;2022-12-08T16:41:05;17.13;;;10.87;;
50821;SDS011;36794;51.212;6.980;2022-12-08T16:43:50;23.00;;;10.75;;
50821;SDS011;36794;51.212;6.980;2022-12-08T16:46:17;21.20;;;11.43;;
50821;SDS011;36794;51.212;6.980;2022-12-08T16:48:47;24.63;;;10.73;;
50821;SDS011;36794;51.212;6.980;2022-12-08T16:51:16;19.90;;;10.80;;
50821;SDS011;36794;51.212;6.980;2022-12-08T16:53:42;19.77;;;10.10;;
50821;SDS011;36794;51.212;6.980;2022-12-08T16:56:13;20.97;;;10.63;;
50821;SDS011;36794;51.212;6.980;2022-12-08T16:58:40;19.83;;;11.40;;
50821;SDS011;36794;51.212;6.980;2022-12-08T17:01:09;19.53;;;11.10;;
50821;SDS011;36794;51.212;6.980;2022-12-08T17:03:35;22.27;;;11.23;;